Sunbeam, Idaho
Current Conditions -  °F | °C
As of 12:55 AM on Friday 24 Oct 2014 (Local Time) from KLLJ Reporting Station
Overcast Overcast  
Wind Chill: 48°   Ceiling: 6000
Heat Index: 48°   Visibility: 10mi
Dew Point: 39°   Wind: 0mph
Humidity: 71%   Direction: NA
Pressure: 30.05"   Gusts: NA
Location:  44.3379°N, 114.824°W
Report Text: KLLJ 240655Z AUTO 00000KT 10SM OVC060 09/04 A3005 RMK AO2 SLP143 T00890039 401670067
Loading
Personal Weather Stations






























Interactive Weather Map
Tropical Storm Tracking
New forecast layout! Learn more

10-Day Weather Forecast

Advertisements
Track Severe Weather on mobile